PWSweather.com
Personal Weather Stations
Station Observations
KILDUNLA3
Devonshire, Dunlap, IL 61525

DevonshireDunlap, IL 61525

Lat: 40.82881546, Lon: -89.62155914

Elevation: 758

Station Type: Oregon Scientific WMR100

http://jimroal.com

Latest ConditionsUpdated 7:44:44 PM CST Wednesday, Jan 16, 2019
Currently Today's Max Today's Min Today's Average
Temperature 31.1°F-0.5°C 35.8°F2.1°C 30.9°F-0.6°C 33.1°F0.6°C
Dew Point 22.8°F-5.1°C 31.7°F-0.2°C 22.0°F-5.6°C 26.0°F-3.3°C
Winds 1.9 mph NNE3.1 kmh NNE 4.8 mph -7.7 kmh - - 2.2 mph 3.5 kmh
Wind Gusts 3.6 mph5.8 kmh 7.4 mph11.9 kmh - -
Humidity 71% 97% 63% 76%
Pressure 30.19 in1022.4 mb 30.24 in1024.0 mb 30.09 in1019.0 mb -
Hour Temp Dew Point Humidity Winds Wind Gusts Pressure Precip Precip Rate Daily Precip Total
07:44 PM 31.1°F-0.5°C 22.8°F-5.1°C 71% 1.9 mph NNE3.1 kmh NNE 3.6 mph5.8 kmh 30.19 in1022.4 mb 0.00 in0.0 mm 0.00 in0.0 mm 0.00 in0.0 mm
07:39 PM 31.1°F-0.5°C 22.8°F-5.1°C 71% 1.4 mph NNE2.3 kmh NNE 4.0 mph6.4 kmh 30.19 in1022.4 mb 0.00 in0.0 mm 0.00 in0.0 mm 0.00 in0.0 mm
07:34 PM 31.1°F-0.5°C 22.8°F-5.1°C 71% 1.6 mph ESE2.6 kmh ESE 4.0 mph6.4 kmh 30.20 in1022.7 mb 0.00 in0.0 mm 0.00 in0.0 mm 0.00 in0.0 mm
07:29 PM 31.1°F-0.5°C 22.8°F-5.1°C 71% 2.2 mph NE3.5 kmh NE 2.9 mph4.7 kmh 30.19 in1022.4 mb 0.00 in0.0 mm 0.00 in0.0 mm 0.00 in0.0 mm
07:24 PM 30.9°F-0.6°C 22.6°F-5.2°C 71% 1.4 mph NNE2.3 kmh NNE 3.4 mph5.5 kmh 30.19 in1022.4 mb 0.00 in0.0 mm 0.00 in0.0 mm 0.00 in0.0 mm
07:19 PM 30.9°F-0.6°C 22.6°F-5.2°C 71% 2.1 mph NNE3.4 kmh NNE 3.4 mph5.5 kmh 30.18 in1022.0 mb 0.00 in0.0 mm 0.00 in0.0 mm 0.00 in0.0 mm
07:14 PM 30.9°F-0.6°C 22.5°F-5.3°C 71% 1.2 mph N1.9 kmh N 2.9 mph4.7 kmh 30.19 in1022.4 mb 0.00 in0.0 mm 0.00 in0.0 mm 0.00 in0.0 mm
07:09 PM 30.9°F-0.6°C 22.3°F-5.4°C 70% 1.7 mph NNE2.7 kmh NNE 3.1 mph5.0 kmh 30.19 in1022.4 mb 0.00 in0.0 mm 0.00 in0.0 mm 0.00 in0.0 mm
07:04 PM 30.9°F-0.6°C 22.3°F-5.4°C 70% 2.2 mph NNE3.5 kmh NNE 3.1 mph5.0 kmh 30.19 in1022.4 mb 0.00 in0.0 mm 0.00 in0.0 mm 0.00 in0.0 mm
06:59 PM 30.9°F-0.6°C 22.3°F-5.4°C 70% 1.3 mph NE2.1 kmh NE 2.5 mph4.0 kmh 30.20 in1022.7 mb 0.00 in0.0 mm 0.00 in0.0 mm 0.00 in0.0 mm
06:54 PM 31.1°F-0.5°C 22.4°F-5.3°C 70% 1.6 mph N2.6 kmh N 2.9 mph4.7 kmh 30.20 in1022.7 mb 0.00 in0.0 mm 0.00 in0.0 mm 0.00 in0.0 mm
06:49 PM 31.1°F-0.5°C 22.4°F-5.3°C 70% 1.8 mph NE2.9 kmh NE 2.9 mph4.7 kmh 30.20 in1022.7 mb 0.00 in0.0 mm 0.00 in0.0 mm 0.00 in0.0 mm
06:44 PM 31.1°F-0.5°C 22.4°F-5.3°C 70% 1.4 mph NE2.3 kmh NE 2.5 mph4.0 kmh 30.20 in1022.7 mb 0.00 in0.0 mm 0.00 in0.0 mm 0.00 in0.0 mm
06:39 PM 31.1°F-0.5°C 22.4°F-5.3°C 70% 1.2 mph NE1.9 kmh NE 2.5 mph4.0 kmh 30.20 in1022.7 mb 0.00 in0.0 mm 0.00 in0.0 mm 0.00 in0.0 mm
06:34 PM 31.1°F-0.5°C 22.4°F-5.3°C 70% 1.5 mph N2.4 kmh N 2.5 mph4.0 kmh 30.20 in1022.7 mb 0.00 in0.0 mm 0.00 in0.0 mm 0.00 in0.0 mm
06:29 PM 31.1°F-0.5°C 22.3°F-5.4°C 70% 1.3 mph NE2.1 kmh NE 2.2 mph3.5 kmh 30.21 in1023.0 mb 0.00 in0.0 mm 0.00 in0.0 mm 0.00 in0.0 mm
06:24 PM 31.1°F-0.5°C 22.3°F-5.4°C 69% 1.3 mph NE2.1 kmh NE 2.5 mph4.0 kmh 30.21 in1023.0 mb 0.00 in0.0 mm 0.00 in0.0 mm 0.00 in0.0 mm
06:19 PM 31.1°F-0.5°C 22.2°F-5.4°C 69% 1.2 mph NNE1.9 kmh NNE 2.5 mph4.0 kmh 30.21 in1023.0 mb 0.00 in0.0 mm 0.00 in0.0 mm 0.00 in0.0 mm
06:14 PM 31.1°F-0.5°C 22.2°F-5.4°C 69% 1.2 mph NE1.9 kmh NE 2.9 mph4.7 kmh 30.21 in1023.0 mb 0.00 in0.0 mm 0.00 in0.0 mm 0.00 in0.0 mm
06:09 PM 31.1°F-0.5°C 22.0°F-5.6°C 69% 1.6 mph NE2.6 kmh NE 2.9 mph4.7 kmh 30.21 in1023.0 mb 0.00 in0.0 mm 0.00 in0.0 mm 0.00 in0.0 mm
06:04 PM 31.2°F-0.4°C 22.2°F-5.4°C 69% 1.6 mph NNE2.6 kmh NNE 2.5 mph4.0 kmh 30.21 in1023.0 mb 0.00 in0.0 mm 0.00 in0.0 mm 0.00 in0.0 mm
05:59 PM 31.3°F-0.4°C 22.2°F-5.4°C 69% 0.5 mph NNE0.8 kmh NNE 3.1 mph5.0 kmh 30.21 in1023.0 mb 0.00 in0.0 mm 0.00 in0.0 mm 0.00 in0.0 mm
05:54 PM 31.3°F-0.4°C 22.2°F-5.4°C 69% 1.4 mph NE2.3 kmh NE 3.1 mph5.0 kmh 30.21 in1023.0 mb 0.00 in0.0 mm 0.00 in0.0 mm 0.00 in0.0 mm
05:49 PM 31.3°F-0.4°C 22.2°F-5.4°C 69% 1.9 mph NE3.1 kmh NE 2.7 mph4.3 kmh 30.21 in1023.0 mb 0.00 in0.0 mm 0.00 in0.0 mm 0.00 in0.0 mm
05:44 PM 31.3°F-0.4°C 22.2°F-5.4°C 69% 1.7 mph NE2.7 kmh NE 2.7 mph4.3 kmh 30.21 in1023.0 mb 0.00 in0.0 mm 0.00 in0.0 mm 0.00 in0.0 mm
05:39 PM 31.5°F-0.3°C 22.4°F-5.3°C 69% 1.9 mph N3.1 kmh N 2.5 mph4.0 kmh 30.21 in1023.0 mb 0.00 in0.0 mm 0.00 in0.0 mm 0.00 in0.0 mm
05:34 PM 31.5°F-0.3°C 22.1°F-5.5°C 68% 1.4 mph NE2.3 kmh NE 2.5 mph4.0 kmh 30.21 in1023.0 mb 0.00 in0.0 mm 0.00 in0.0 mm 0.00 in0.0 mm
05:29 PM 31.5°F-0.3°C 22.0°F-5.6°C 68% 1.0 mph NNE1.6 kmh NNE 2.5 mph4.0 kmh 30.21 in1023.0 mb 0.00 in0.0 mm 0.00 in0.0 mm 0.00 in0.0 mm
05:24 PM 31.6°F-0.2°C 22.1°F-5.5°C 68% 0.6 mph N1.0 kmh N 2.9 mph4.7 kmh 30.21 in1023.0 mb 0.00 in0.0 mm 0.00 in0.0 mm 0.00 in0.0 mm
05:19 PM 31.6°F-0.2°C 22.2°F-5.4°C 68% 1.8 mph NNE2.9 kmh NNE 2.9 mph4.7 kmh 30.21 in1023.0 mb 0.00 in0.0 mm 0.00 in0.0 mm 0.00 in0.0 mm
05:14 PM 31.7°F-0.2°C 22.2°F-5.4°C 68% 1.6 mph NNE2.6 kmh NNE 2.7 mph4.3 kmh 30.21 in1023.0 mb 0.00 in0.0 mm 0.00 in0.0 mm 0.00 in0.0 mm
05:09 PM 31.8°F-0.1°C 22.3°F-5.4°C 68% 2.0 mph NE3.2 kmh NE 2.9 mph4.7 kmh 30.21 in1023.0 mb 0.00 in0.0 mm 0.00 in0.0 mm 0.00 in0.0 mm
05:04 PM 31.9°F-0.1°C 22.4°F-5.3°C 68% 1.8 mph NNE2.9 kmh NNE 2.9 mph4.7 kmh 30.21 in1023.0 mb 0.00 in0.0 mm 0.00 in0.0 mm 0.00 in0.0 mm
04:59 PM 32.0°F0.0°C 22.5°F-5.3°C 68% 1.6 mph NE2.6 kmh NE 2.5 mph4.0 kmh 30.21 in1023.0 mb 0.00 in0.0 mm 0.00 in0.0 mm 0.00 in0.0 mm
04:54 PM 32.1°F0.1°C 22.5°F-5.3°C 67% 1.2 mph N1.9 kmh N 3.4 mph5.5 kmh 30.21 in1023.0 mb 0.00 in0.0 mm 0.00 in0.0 mm 0.00 in0.0 mm
04:49 PM 32.2°F0.1°C 22.3°F-5.4°C 66% 2.0 mph NNE3.2 kmh NNE 3.4 mph5.5 kmh 30.21 in1023.0 mb 0.00 in0.0 mm 0.00 in0.0 mm 0.00 in0.0 mm
04:44 PM 32.2°F0.1°C 22.3°F-5.4°C 66% 1.5 mph NE2.4 kmh NE 3.6 mph5.8 kmh 30.21 in1023.0 mb 0.00 in0.0 mm 0.00 in0.0 mm 0.00 in0.0 mm
04:39 PM 32.4°F0.2°C 22.4°F-5.3°C 66% 1.8 mph NE2.9 kmh NE 3.6 mph5.8 kmh 30.20 in1022.7 mb 0.00 in0.0 mm 0.00 in0.0 mm 0.00 in0.0 mm
04:34 PM 32.5°F0.3°C 22.6°F-5.2°C 66% 2.7 mph N4.3 kmh N 3.6 mph5.8 kmh 30.20 in1022.7 mb 0.00 in0.0 mm 0.00 in0.0 mm 0.00 in0.0 mm
04:29 PM 32.5°F0.3°C 22.6°F-5.2°C 66% 1.7 mph N2.7 kmh N 3.1 mph5.0 kmh 30.20 in1022.7 mb 0.00 in0.0 mm 0.00 in0.0 mm 0.00 in0.0 mm
04:24 PM 32.7°F0.4°C 22.8°F-5.1°C 66% 2.0 mph NE3.2 kmh NE 3.1 mph5.0 kmh 30.20 in1022.7 mb 0.00 in0.0 mm 0.00 in0.0 mm 0.00 in0.0 mm
04:19 PM 32.8°F0.4°C 22.8°F-5.1°C 66% 1.7 mph N2.7 kmh N 2.9 mph4.7 kmh 30.20 in1022.7 mb 0.00 in0.0 mm 0.00 in0.0 mm 0.00 in0.0 mm
04:14 PM 32.9°F0.5°C 22.9°F-5.1°C 66% 1.2 mph NE1.9 kmh NE 3.1 mph5.0 kmh 30.21 in1023.0 mb 0.00 in0.0 mm 0.00 in0.0 mm 0.00 in0.0 mm
04:09 PM 33.1°F0.6°C 22.8°F-5.1°C 66% 2.3 mph N3.7 kmh N 3.1 mph5.0 kmh 30.21 in1023.0 mb 0.00 in0.0 mm 0.00 in0.0 mm 0.00 in0.0 mm
04:04 PM 33.2°F0.7°C 22.8°F-5.1°C 65% 2.0 mph ENE3.2 kmh ENE 3.1 mph5.0 kmh 30.21 in1023.0 mb 0.00 in0.0 mm 0.00 in0.0 mm 0.00 in0.0 mm
03:59 PM 33.3°F0.7°C 22.9°F-5.1°C 65% 0.7 mph NE1.1 kmh NE 3.4 mph5.5 kmh 30.20 in1022.7 mb 0.00 in0.0 mm 0.00 in0.0 mm 0.00 in0.0 mm
03:54 PM 33.3°F0.7°C 22.9°F-5.1°C 65% 1.4 mph NNE2.3 kmh NNE 3.4 mph5.5 kmh 30.20 in1022.7 mb 0.00 in0.0 mm 0.00 in0.0 mm 0.00 in0.0 mm
03:49 PM 33.4°F0.8°C 23.1°F-4.9°C 65% 1.2 mph NE1.9 kmh NE 4.3 mph6.9 kmh 30.20 in1022.7 mb 0.00 in0.0 mm 0.00 in0.0 mm 0.00 in0.0 mm
03:44 PM 33.5°F0.8°C 23.2°F-4.9°C 65% 2.3 mph NE3.7 kmh NE 4.3 mph6.9 kmh 30.20 in1022.7 mb 0.00 in0.0 mm 0.00 in0.0 mm 0.00 in0.0 mm
03:39 PM 33.6°F0.9°C 23.2°F-4.9°C 65% 1.9 mph NE3.1 kmh NE 2.9 mph4.7 kmh 30.19 in1022.4 mb 0.00 in0.0 mm 0.00 in0.0 mm 0.00 in0.0 mm
03:34 PM 33.6°F0.9°C 23.2°F-4.9°C 65% 1.3 mph NNE2.1 kmh NNE 2.9 mph4.7 kmh 30.18 in1022.0 mb 0.00 in0.0 mm 0.00 in0.0 mm 0.00 in0.0 mm
03:29 PM 33.6°F0.9°C 23.2°F-4.9°C 65% 0.8 mph NNE1.3 kmh NNE 3.4 mph5.5 kmh 30.19 in1022.4 mb 0.00 in0.0 mm 0.00 in0.0 mm 0.00 in0.0 mm
03:24 PM 33.8°F1.0°C 23.4°F-4.8°C 65% 1.1 mph NE1.8 kmh NE 3.4 mph5.5 kmh 30.18 in1022.0 mb 0.00 in0.0 mm 0.00 in0.0 mm 0.00 in0.0 mm
03:19 PM 33.8°F1.0°C 23.4°F-4.8°C 65% 1.4 mph NNE2.3 kmh NNE 4.0 mph6.4 kmh 30.19 in1022.4 mb 0.00 in0.0 mm 0.00 in0.0 mm 0.00 in0.0 mm
03:14 PM 33.8°F1.0°C 23.3°F-4.8°C 65% 1.8 mph NE2.9 kmh NE 4.0 mph6.4 kmh 30.19 in1022.4 mb 0.00 in0.0 mm 0.00 in0.0 mm 0.00 in0.0 mm
03:09 PM 34.0°F1.1°C 23.2°F-4.9°C 64% 1.5 mph SSE2.4 kmh SSE 3.6 mph5.8 kmh 30.19 in1022.4 mb 0.00 in0.0 mm 0.00 in0.0 mm 0.00 in0.0 mm
03:04 PM 34.0°F1.1°C 23.3°F-4.8°C 64% 2.0 mph ESE3.2 kmh ESE 3.6 mph5.8 kmh 30.18 in1022.0 mb 0.00 in0.0 mm 0.00 in0.0 mm 0.00 in0.0 mm
02:59 PM 34.2°F1.2°C 23.8°F-4.6°C 65% 1.3 mph E2.1 kmh E 3.4 mph5.5 kmh 30.18 in1022.0 mb 0.00 in0.0 mm 0.00 in0.0 mm 0.00 in0.0 mm
02:54 PM 34.2°F1.2°C 23.7°F-4.6°C 65% 1.3 mph NNE2.1 kmh NNE 3.4 mph5.5 kmh 30.18 in1022.0 mb 0.00 in0.0 mm 0.00 in0.0 mm 0.00 in0.0 mm
02:49 PM 34.2°F1.2°C 23.5°F-4.7°C 65% 1.4 mph E2.3 kmh E 4.3 mph6.9 kmh 30.18 in1022.0 mb 0.00 in0.0 mm 0.00 in0.0 mm 0.00 in0.0 mm
02:44 PM 34.2°F1.2°C 23.3°F-4.8°C 64% 1.6 mph ENE2.6 kmh ENE 4.3 mph6.9 kmh 30.18 in1022.0 mb 0.00 in0.0 mm 0.00 in0.0 mm 0.00 in0.0 mm
02:39 PM 34.3°F1.3°C 23.4°F-4.8°C 64% 2.6 mph NE4.2 kmh NE 5.6 mph9.0 kmh 30.18 in1022.0 mb 0.00 in0.0 mm 0.00 in0.0 mm 0.00 in0.0 mm
02:34 PM 34.3°F1.3°C 23.5°F-4.7°C 64% 2.1 mph NE3.4 kmh NE 5.6 mph9.0 kmh 30.18 in1022.0 mb 0.00 in0.0 mm 0.00 in0.0 mm 0.00 in0.0 mm
02:29 PM 34.4°F1.3°C 23.5°F-4.7°C 64% 1.9 mph E3.1 kmh E 4.9 mph7.9 kmh 30.18 in1022.0 mb 0.00 in0.0 mm 0.00 in0.0 mm 0.00 in0.0 mm
02:24 PM 34.5°F1.4°C 23.7°F-4.6°C 64% 2.6 mph NNE4.2 kmh NNE 4.9 mph7.9 kmh 30.18 in1022.0 mb 0.00 in0.0 mm 0.00 in0.0 mm 0.00 in0.0 mm
02:19 PM 34.5°F1.4°C 23.4°F-4.8°C 64% 2.2 mph NNE3.5 kmh NNE 3.4 mph5.5 kmh 30.18 in1022.0 mb 0.00 in0.0 mm 0.00 in0.0 mm 0.00 in0.0 mm
02:14 PM 34.6°F1.4°C 23.3°F-4.8°C 63% 2.0 mph NE3.2 kmh NE 3.8 mph6.1 kmh 30.18 in1022.0 mb 0.00 in0.0 mm 0.00 in0.0 mm 0.00 in0.0 mm
02:09 PM 34.9°F1.6°C 23.6°F-4.7°C 63% 2.1 mph E3.4 kmh E 4.3 mph6.9 kmh 30.18 in1022.0 mb 0.00 in0.0 mm 0.00 in0.0 mm 0.00 in0.0 mm
02:04 PM 34.9°F1.6°C 24.0°F-4.4°C 64% 2.5 mph NE4.0 kmh NE 4.3 mph6.9 kmh 30.18 in1022.0 mb 0.00 in0.0 mm 0.00 in0.0 mm 0.00 in0.0 mm
01:59 PM 35.1°F1.7°C 24.2°F-4.3°C 64% 2.6 mph N4.2 kmh N 3.8 mph6.1 kmh 30.18 in1022.0 mb 0.00 in0.0 mm 0.00 in0.0 mm 0.00 in0.0 mm
01:54 PM 35.2°F1.8°C 24.5°F-4.2°C 65% 1.7 mph NE2.7 kmh NE 4.0 mph6.4 kmh 30.19 in1022.4 mb 0.00 in0.0 mm 0.00 in0.0 mm 0.00 in0.0 mm
01:49 PM 35.1°F1.7°C 24.6°F-4.1°C 65% 2.4 mph ESE3.9 kmh ESE 4.0 mph6.4 kmh 30.19 in1022.4 mb 0.00 in0.0 mm 0.00 in0.0 mm 0.00 in0.0 mm
01:44 PM 35.0°F1.7°C 24.2°F-4.3°C 64% 1.4 mph E2.3 kmh E 4.0 mph6.4 kmh 30.18 in1022.0 mb 0.00 in0.0 mm 0.00 in0.0 mm 0.00 in0.0 mm
01:39 PM 35.0°F1.7°C 24.3°F-4.3°C 65% 1.4 mph NNE2.3 kmh NNE 3.1 mph5.0 kmh 30.19 in1022.4 mb 0.00 in0.0 mm 0.00 in0.0 mm 0.00 in0.0 mm
01:34 PM 35.1°F1.7°C 24.4°F-4.2°C 65% 1.9 mph NNE3.1 kmh NNE 5.4 mph8.7 kmh 30.19 in1022.4 mb 0.00 in0.0 mm 0.00 in0.0 mm 0.00 in0.0 mm
01:29 PM 35.1°F1.7°C 24.1°F-4.4°C 64% 2.4 mph SE3.9 kmh SE 5.4 mph8.7 kmh 30.19 in1022.4 mb 0.00 in0.0 mm 0.00 in0.0 mm 0.00 in0.0 mm
01:24 PM 35.2°F1.8°C 24.2°F-4.3°C 64% 2.5 mph NE4.0 kmh NE 3.8 mph6.1 kmh 30.19 in1022.4 mb 0.00 in0.0 mm 0.00 in0.0 mm 0.00 in0.0 mm
01:19 PM 35.3°F1.8°C 24.6°F-4.1°C 65% 2.3 mph NNE3.7 kmh NNE 3.8 mph6.1 kmh 30.19 in1022.4 mb 0.00 in0.0 mm 0.00 in0.0 mm 0.00 in0.0 mm
01:14 PM 35.4°F1.9°C 24.9°F-3.9°C 65% 1.9 mph NNE3.1 kmh NNE 4.0 mph6.4 kmh 30.19 in1022.4 mb 0.00 in0.0 mm 0.00 in0.0 mm 0.00 in0.0 mm
01:09 PM 35.5°F1.9°C 24.8°F-4.0°C 65% 2.4 mph NNE3.9 kmh NNE 4.0 mph6.4 kmh 30.19 in1022.4 mb 0.00 in0.0 mm 0.00 in0.0 mm 0.00 in0.0 mm
01:04 PM 35.5°F1.9°C 24.8°F-4.0°C 65% 2.2 mph NE3.5 kmh NE 4.0 mph6.4 kmh 30.19 in1022.4 mb 0.00 in0.0 mm 0.00 in0.0 mm 0.00 in0.0 mm
12:59 PM 35.4°F1.9°C 24.9°F-3.9°C 65% 2.6 mph NE4.2 kmh NE 4.9 mph7.9 kmh 30.20 in1022.7 mb 0.00 in0.0 mm 0.00 in0.0 mm 0.00 in0.0 mm
12:54 PM 35.4°F1.9°C 25.0°F-3.9°C 65% 2.5 mph N4.0 kmh N 4.9 mph7.9 kmh 30.20 in1022.7 mb 0.00 in0.0 mm 0.00 in0.0 mm 0.00 in0.0 mm
12:49 PM 35.4°F1.9°C 25.0°F-3.9°C 65% 1.7 mph NE2.7 kmh NE 3.6 mph5.8 kmh 30.20 in1022.7 mb 0.00 in0.0 mm 0.00 in0.0 mm 0.00 in0.0 mm
12:44 PM 35.5°F1.9°C 24.9°F-3.9°C 65% 2.3 mph N3.7 kmh N 3.6 mph5.8 kmh 30.20 in1022.7 mb 0.00 in0.0 mm 0.00 in0.0 mm 0.00 in0.0 mm
12:39 PM 35.6°F2.0°C 24.7°F-4.1°C 64% 2.3 mph N3.7 kmh N 3.8 mph6.1 kmh 30.20 in1022.7 mb 0.00 in0.0 mm 0.00 in0.0 mm 0.00 in0.0 mm
12:34 PM 35.7°F2.1°C 25.1°F-3.8°C 65% 1.9 mph NNE3.1 kmh NNE 3.8 mph6.1 kmh 30.20 in1022.7 mb 0.00 in0.0 mm 0.00 in0.0 mm 0.00 in0.0 mm
12:29 PM 35.7°F2.1°C 25.2°F-3.8°C 65% 0.5 mph E0.8 kmh E 2.7 mph4.3 kmh 30.21 in1023.0 mb 0.00 in0.0 mm 0.00 in0.0 mm 0.00 in0.0 mm
12:24 PM 35.5°F1.9°C 25.0°F-3.9°C 65% Calm Calm 3.1 mph5.0 kmh 30.21 in1023.0 mb 0.00 in0.0 mm 0.00 in0.0 mm 0.00 in0.0 mm
12:19 PM 35.4°F1.9°C 25.0°F-3.9°C 65% 1.3 mph ENE2.1 kmh ENE 3.6 mph5.8 kmh 30.21 in1023.0 mb 0.00 in0.0 mm 0.00 in0.0 mm 0.00 in0.0 mm
12:14 PM 35.4°F1.9°C 25.0°F-3.9°C 65% 1.1 mph E1.8 kmh E 3.6 mph5.8 kmh 30.22 in1023.4 mb 0.00 in0.0 mm 0.00 in0.0 mm 0.00 in0.0 mm
12:09 PM 35.5°F1.9°C 24.8°F-4.0°C 65% 2.2 mph E3.5 kmh E 3.4 mph5.5 kmh 30.22 in1023.4 mb 0.00 in0.0 mm 0.00 in0.0 mm 0.00 in0.0 mm
12:04 PM 35.6°F2.0°C 24.7°F-4.1°C 64% 2.0 mph NNE3.2 kmh NNE 4.0 mph6.4 kmh 30.22 in1023.4 mb 0.00 in0.0 mm 0.00 in0.0 mm 0.00 in0.0 mm
11:59 AM 35.7°F2.1°C 24.8°F-4.0°C 64% 1.9 mph N3.1 kmh N 4.0 mph6.4 kmh 30.22 in1023.4 mb 0.00 in0.0 mm 0.00 in0.0 mm 0.00 in0.0 mm
11:54 AM 35.8°F2.1°C 25.2°F-3.8°C 65% 1.8 mph N2.9 kmh N 3.8 mph6.1 kmh 30.22 in1023.4 mb 0.00 in0.0 mm 0.00 in0.0 mm 0.00 in0.0 mm
11:49 AM 35.7°F2.1°C 25.1°F-3.8°C 65% 2.2 mph ESE3.5 kmh ESE 3.8 mph6.1 kmh 30.22 in1023.4 mb 0.00 in0.0 mm 0.00 in0.0 mm 0.00 in0.0 mm
11:44 AM 35.6°F2.0°C 24.9°F-3.9°C 65% 0.7 mph NNE1.1 kmh NNE 2.9 mph4.7 kmh 30.23 in1023.7 mb 0.00 in0.0 mm 0.00 in0.0 mm 0.00 in0.0 mm
11:39 AM 35.6°F2.0°C 24.7°F-4.1°C 64% 1.0 mph N1.6 kmh N 5.8 mph9.3 kmh 30.23 in1023.7 mb 0.00 in0.0 mm 0.00 in0.0 mm 0.00 in0.0 mm
11:34 AM 35.4°F1.9°C 24.9°F-3.9°C 65% 2.4 mph N3.9 kmh N 5.8 mph9.3 kmh 30.23 in1023.7 mb 0.00 in0.0 mm 0.00 in0.0 mm 0.00 in0.0 mm
11:29 AM 35.4°F1.9°C 24.8°F-4.0°C 65% 4.1 mph N6.6 kmh N 5.4 mph8.7 kmh 30.23 in1023.7 mb 0.00 in0.0 mm 0.00 in0.0 mm 0.00 in0.0 mm
11:24 AM 35.4°F1.9°C 25.0°F-3.9°C 65% 3.2 mph N5.1 kmh N 5.4 mph8.7 kmh 30.23 in1023.7 mb 0.00 in0.0 mm 0.00 in0.0 mm 0.00 in0.0 mm
11:19 AM 35.4°F1.9°C 24.9°F-3.9°C 65% 2.2 mph N3.5 kmh N 4.3 mph6.9 kmh 30.23 in1023.7 mb 0.00 in0.0 mm 0.00 in0.0 mm 0.00 in0.0 mm
11:14 AM 35.3°F1.8°C 24.8°F-4.0°C 65% 2.7 mph NNE4.3 kmh NNE 6.0 mph9.7 kmh 30.23 in1023.7 mb 0.00 in0.0 mm 0.00 in0.0 mm 0.00 in0.0 mm
11:09 AM 35.4°F1.9°C 24.9°F-3.9°C 65% 4.4 mph N7.1 kmh N 6.0 mph9.7 kmh 30.23 in1023.7 mb 0.00 in0.0 mm 0.00 in0.0 mm 0.00 in0.0 mm
11:04 AM 35.4°F1.9°C 25.2°F-3.8°C 66% 2.8 mph N4.5 kmh N 4.3 mph6.9 kmh 30.24 in1024.0 mb 0.00 in0.0 mm 0.00 in0.0 mm 0.00 in0.0 mm
10:59 AM 35.2°F1.8°C 25.1°F-3.8°C 66% 2.7 mph SE4.3 kmh SE 3.8 mph6.1 kmh 30.23 in1023.7 mb 0.00 in0.0 mm 0.00 in0.0 mm 0.00 in0.0 mm
10:54 AM 35.1°F1.7°C 24.6°F-4.1°C 65% 2.6 mph N4.2 kmh N 5.8 mph9.3 kmh 30.23 in1023.7 mb 0.00 in0.0 mm 0.00 in0.0 mm 0.00 in0.0 mm
10:49 AM 34.9°F1.6°C 24.4°F-4.2°C 65% 2.6 mph N4.2 kmh N 5.8 mph9.3 kmh 30.23 in1023.7 mb 0.00 in0.0 mm 0.00 in0.0 mm 0.00 in0.0 mm
10:44 AM 34.9°F1.6°C 24.7°F-4.1°C 66% 3.6 mph N5.8 kmh N 5.4 mph8.7 kmh 30.23 in1023.7 mb 0.00 in0.0 mm 0.00 in0.0 mm 0.00 in0.0 mm
10:39 AM 34.8°F1.6°C 24.8°F-4.0°C 66% 2.5 mph NE4.0 kmh NE 4.0 mph6.4 kmh 30.23 in1023.7 mb 0.00 in0.0 mm 0.00 in0.0 mm 0.00 in0.0 mm
10:34 AM 34.8°F1.6°C 24.8°F-4.0°C 66% 2.6 mph N4.2 kmh N 4.3 mph6.9 kmh 30.23 in1023.7 mb 0.00 in0.0 mm 0.00 in0.0 mm 0.00 in0.0 mm
10:29 AM 34.7°F1.5°C 24.8°F-4.0°C 67% 3.1 mph N5.0 kmh N 4.3 mph6.9 kmh 30.23 in1023.7 mb 0.00 in0.0 mm 0.00 in0.0 mm 0.00 in0.0 mm
10:24 AM 34.5°F1.4°C 24.9°F-3.9°C 68% 2.8 mph N4.5 kmh N 3.8 mph6.1 kmh 30.23 in1023.7 mb 0.00 in0.0 mm 0.00 in0.0 mm 0.00 in0.0 mm
10:19 AM 34.4°F1.3°C 24.8°F-4.0°C 68% 2.3 mph N3.7 kmh N 4.9 mph7.9 kmh 30.23 in1023.7 mb 0.00 in0.0 mm 0.00 in0.0 mm 0.00 in0.0 mm
10:14 AM 34.2°F1.2°C 24.6°F-4.1°C 68% 3.4 mph N5.5 kmh N 4.9 mph7.9 kmh 30.23 in1023.7 mb 0.00 in0.0 mm 0.00 in0.0 mm 0.00 in0.0 mm
10:09 AM 34.3°F1.3°C 24.8°F-4.0°C 68% 1.6 mph NE2.6 kmh NE 3.4 mph5.5 kmh 30.23 in1023.7 mb 0.00 in0.0 mm 0.00 in0.0 mm 0.00 in0.0 mm
10:04 AM 34.1°F1.2°C 24.9°F-3.9°C 69% 0.6 mph NNE1.0 kmh NNE 3.1 mph5.0 kmh 30.23 in1023.7 mb 0.00 in0.0 mm 0.00 in0.0 mm 0.00 in0.0 mm
09:59 AM 34.0°F1.1°C 24.8°F-4.0°C 69% 1.3 mph N2.1 kmh N 3.6 mph5.8 kmh 30.23 in1023.7 mb 0.00 in0.0 mm 0.00 in0.0 mm 0.00 in0.0 mm
09:54 AM 33.8°F1.0°C 24.6°F-4.1°C 69% 2.6 mph NE4.2 kmh NE 3.6 mph5.8 kmh 30.23 in1023.7 mb 0.00 in0.0 mm 0.00 in0.0 mm 0.00 in0.0 mm
09:49 AM 33.7°F0.9°C 24.5°F-4.2°C 69% 0.7 mph NNE1.1 kmh NNE 3.1 mph5.0 kmh 30.23 in1023.7 mb 0.00 in0.0 mm 0.00 in0.0 mm 0.00 in0.0 mm
09:44 AM 33.5°F0.8°C 24.4°F-4.2°C 69% 2.0 mph N3.2 kmh N 4.7 mph7.6 kmh 30.22 in1023.4 mb 0.00 in0.0 mm 0.00 in0.0 mm 0.00 in0.0 mm
09:39 AM 33.4°F0.8°C 24.0°F-4.4°C 68% 2.4 mph N3.9 kmh N 4.7 mph7.6 kmh 30.22 in1023.4 mb 0.00 in0.0 mm 0.00 in0.0 mm 0.00 in0.0 mm
09:34 AM 33.3°F0.7°C 23.9°F-4.5°C 68% 2.5 mph NNW4.0 kmh NNW 4.9 mph7.9 kmh 30.22 in1023.4 mb 0.00 in0.0 mm 0.00 in0.0 mm 0.00 in0.0 mm
09:29 AM 33.2°F0.7°C 24.3°F-4.3°C 69% 3.5 mph N5.6 kmh N 4.9 mph7.9 kmh 30.22 in1023.4 mb 0.00 in0.0 mm 0.00 in0.0 mm 0.00 in0.0 mm
09:24 AM 33.1°F0.6°C 24.7°F-4.1°C 71% 1.9 mph NNW3.1 kmh NNW 5.4 mph8.7 kmh 30.22 in1023.4 mb 0.00 in0.0 mm 0.00 in0.0 mm 0.00 in0.0 mm
09:19 AM 33.1°F0.6°C 24.7°F-4.1°C 71% 1.7 mph NNE2.7 kmh NNE 5.4 mph8.7 kmh 30.21 in1023.0 mb 0.00 in0.0 mm 0.00 in0.0 mm 0.00 in0.0 mm
09:14 AM 32.9°F0.5°C 24.5°F-4.2°C 71% 2.9 mph N4.7 kmh N 4.3 mph6.9 kmh 30.21 in1023.0 mb 0.00 in0.0 mm 0.00 in0.0 mm 0.00 in0.0 mm
09:09 AM 32.7°F0.4°C 24.4°F-4.2°C 71% 2.6 mph N4.2 kmh N 4.3 mph6.9 kmh 30.21 in1023.0 mb 0.00 in0.0 mm 0.00 in0.0 mm 0.00 in0.0 mm
09:04 AM 32.6°F0.3°C 24.1°F-4.4°C 70% 2.6 mph N4.2 kmh N 4.3 mph6.9 kmh 30.21 in1023.0 mb 0.00 in0.0 mm 0.00 in0.0 mm 0.00 in0.0 mm
08:59 AM 32.5°F0.3°C 24.8°F-4.0°C 73% 2.6 mph NNW4.2 kmh NNW 4.3 mph6.9 kmh 30.20 in1022.7 mb 0.00 in0.0 mm 0.00 in0.0 mm 0.00 in0.0 mm
08:54 AM 32.5°F0.3°C 24.9°F-3.9°C 73% 2.2 mph NNW3.5 kmh NNW 3.8 mph6.1 kmh 30.21 in1023.0 mb 0.00 in0.0 mm 0.00 in0.0 mm 0.00 in0.0 mm
08:49 AM 32.5°F0.3°C 24.6°F-4.1°C 72% 1.7 mph NNW2.7 kmh NNW 2.7 mph4.3 kmh 30.21 in1023.0 mb 0.00 in0.0 mm 0.00 in0.0 mm 0.00 in0.0 mm
08:44 AM 32.4°F0.2°C 24.8°F-4.0°C 73% 2.0 mph NNW3.2 kmh NNW 4.0 mph6.4 kmh 30.21 in1023.0 mb 0.00 in0.0 mm 0.00 in0.0 mm 0.00 in0.0 mm
08:39 AM 32.3°F0.2°C 24.8°F-4.0°C 73% 2.7 mph NNW4.3 kmh NNW 4.0 mph6.4 kmh 30.20 in1022.7 mb 0.00 in0.0 mm 0.00 in0.0 mm 0.00 in0.0 mm
08:34 AM 32.2°F0.1°C 25.0°F-3.9°C 74% 2.5 mph N4.0 kmh N 3.1 mph5.0 kmh 30.20 in1022.7 mb 0.00 in0.0 mm 0.00 in0.0 mm 0.00 in0.0 mm
08:29 AM 32.2°F0.1°C 25.1°F-3.8°C 75% 1.9 mph N3.1 kmh N 3.6 mph5.8 kmh 30.20 in1022.7 mb 0.00 in0.0 mm 0.00 in0.0 mm 0.00 in0.0 mm
08:24 AM 32.2°F0.1°C 25.3°F-3.7°C 76% 2.0 mph NNW3.2 kmh NNW 3.6 mph5.8 kmh 30.20 in1022.7 mb 0.00 in0.0 mm 0.00 in0.0 mm 0.00 in0.0 mm
08:19 AM 32.2°F0.1°C 25.3°F-3.7°C 76% 2.0 mph N3.2 kmh N 3.1 mph5.0 kmh 30.20 in1022.7 mb 0.00 in0.0 mm 0.00 in0.0 mm 0.00 in0.0 mm
08:14 AM 32.2°F0.1°C 25.3°F-3.7°C 76% 1.8 mph N2.9 kmh N 2.9 mph4.7 kmh 30.20 in1022.7 mb 0.00 in0.0 mm 0.00 in0.0 mm 0.00 in0.0 mm
08:09 AM 32.0°F0.0°C 25.2°F-3.8°C 76% 2.1 mph NNW3.4 kmh NNW 3.1 mph5.0 kmh 30.20 in1022.7 mb 0.00 in0.0 mm 0.00 in0.0 mm 0.00 in0.0 mm
08:04 AM 32.0°F0.0°C 25.2°F-3.8°C 76% 1.3 mph NNW2.1 kmh NNW 3.8 mph6.1 kmh 30.20 in1022.7 mb 0.00 in0.0 mm 0.00 in0.0 mm 0.00 in0.0 mm
07:59 AM 31.9°F-0.1°C 25.2°F-3.8°C 76% 2.3 mph NW3.7 kmh NW 3.8 mph6.1 kmh 30.20 in1022.7 mb 0.00 in0.0 mm 0.00 in0.0 mm 0.00 in0.0 mm
07:54 AM 31.9°F-0.1°C 25.4°F-3.7°C 76% 2.5 mph N4.0 kmh N 3.4 mph5.5 kmh 30.19 in1022.4 mb 0.00 in0.0 mm 0.00 in0.0 mm 0.00 in0.0 mm
07:49 AM 31.9°F-0.1°C 25.4°F-3.7°C 77% 1.1 mph NNW1.8 kmh NNW 2.7 mph4.3 kmh 30.20 in1022.7 mb 0.00 in0.0 mm 0.00 in0.0 mm 0.00 in0.0 mm
07:44 AM 31.9°F-0.1°C 25.4°F-3.7°C 77% 1.8 mph N2.9 kmh N 2.9 mph4.7 kmh 30.19 in1022.4 mb 0.00 in0.0 mm 0.00 in0.0 mm 0.00 in0.0 mm
07:39 AM 31.9°F-0.1°C 25.5°F-3.6°C 77% 1.8 mph NNW2.9 kmh NNW 4.3 mph6.9 kmh 30.19 in1022.4 mb 0.00 in0.0 mm 0.00 in0.0 mm 0.00 in0.0 mm
07:34 AM 31.9°F-0.1°C 25.4°F-3.7°C 77% 1.3 mph NNW2.1 kmh NNW 4.3 mph6.9 kmh 30.19 in1022.4 mb 0.00 in0.0 mm 0.00 in0.0 mm 0.00 in0.0 mm
07:29 AM 31.9°F-0.1°C 25.5°F-3.6°C 77% 1.8 mph NNW2.9 kmh NNW 3.6 mph5.8 kmh 30.19 in1022.4 mb 0.00 in0.0 mm 0.00 in0.0 mm 0.00 in0.0 mm
07:24 AM 32.0°F0.0°C 25.5°F-3.6°C 77% 2.2 mph NNW3.5 kmh NNW 5.8 mph9.3 kmh 30.18 in1022.0 mb 0.00 in0.0 mm 0.00 in0.0 mm 0.00 in0.0 mm
07:19 AM 32.0°F0.0°C 25.5°F-3.6°C 77% 2.3 mph N3.7 kmh N 5.8 mph9.3 kmh 30.18 in1022.0 mb 0.00 in0.0 mm 0.00 in0.0 mm 0.00 in0.0 mm
07:14 AM 32.0°F0.0°C 25.7°F-3.5°C 77% 2.9 mph NNW4.7 kmh NNW 5.4 mph8.7 kmh 30.18 in1022.0 mb 0.00 in0.0 mm 0.00 in0.0 mm 0.00 in0.0 mm
07:09 AM 32.1°F0.1°C 25.9°F-3.4°C 78% 3.1 mph N5.0 kmh N 4.7 mph7.6 kmh 30.18 in1022.0 mb 0.00 in0.0 mm 0.00 in0.0 mm 0.00 in0.0 mm
07:04 AM 32.2°F0.1°C 26.0°F-3.3°C 78% 3.0 mph N4.8 kmh N 5.4 mph8.7 kmh 30.17 in1021.7 mb 0.00 in0.0 mm 0.00 in0.0 mm 0.00 in0.0 mm
06:59 AM 32.2°F0.1°C 26.0°F-3.3°C 78% 3.7 mph N6.0 kmh N 6.0 mph9.7 kmh 30.17 in1021.7 mb 0.00 in0.0 mm 0.00 in0.0 mm 0.00 in0.0 mm
06:54 AM 32.3°F0.2°C 26.4°F-3.1°C 79% 4.1 mph N6.6 kmh N 6.0 mph9.7 kmh 30.17 in1021.7 mb 0.00 in0.0 mm 0.00 in0.0 mm 0.00 in0.0 mm
06:49 AM 32.4°F0.2°C 26.6°F-3.0°C 79% 4.8 mph N7.7 kmh N 6.0 mph9.7 kmh 30.17 in1021.7 mb 0.00 in0.0 mm 0.00 in0.0 mm 0.00 in0.0 mm
06:44 AM 32.5°F0.3°C 26.7°F-2.9°C 79% 3.8 mph N6.1 kmh N 4.9 mph7.9 kmh 30.17 in1021.7 mb 0.00 in0.0 mm 0.00 in0.0 mm 0.00 in0.0 mm
06:39 AM 32.5°F0.3°C 27.1°F-2.7°C 80% 2.5 mph NNW4.0 kmh NNW 4.0 mph6.4 kmh 30.17 in1021.7 mb 0.00 in0.0 mm 0.00 in0.0 mm 0.00 in0.0 mm
06:34 AM 32.5°F0.3°C 27.3°F-2.6°C 81% 2.7 mph N4.3 kmh N 4.5 mph7.2 kmh 30.17 in1021.7 mb 0.00 in0.0 mm 0.00 in0.0 mm 0.00 in0.0 mm
06:29 AM 32.5°F0.3°C 27.4°F-2.6°C 81% 3.3 mph NNW5.3 kmh NNW 4.5 mph7.2 kmh 30.17 in1021.7 mb 0.00 in0.0 mm 0.00 in0.0 mm 0.00 in0.0 mm
06:24 AM 32.5°F0.3°C 27.4°F-2.6°C 81% 2.2 mph N3.5 kmh N 2.7 mph4.3 kmh 30.17 in1021.7 mb 0.00 in0.0 mm 0.00 in0.0 mm 0.00 in0.0 mm
06:19 AM 32.7°F0.4°C 27.6°F-2.4°C 81% 1.1 mph N1.8 kmh N 3.4 mph5.5 kmh 30.16 in1021.3 mb 0.00 in0.0 mm 0.00 in0.0 mm 0.00 in0.0 mm
06:14 AM 32.7°F0.4°C 27.6°F-2.4°C 81% 2.5 mph NNW4.0 kmh NNW 3.6 mph5.8 kmh 30.16 in1021.3 mb 0.00 in0.0 mm 0.00 in0.0 mm 0.00 in0.0 mm
06:09 AM 32.7°F0.4°C 27.7°F-2.4°C 81% 2.3 mph N3.7 kmh N 3.6 mph5.8 kmh 30.15 in1021.0 mb 0.00 in0.0 mm 0.00 in0.0 mm 0.00 in0.0 mm
06:04 AM 32.7°F0.4°C 27.8°F-2.3°C 82% 2.0 mph N3.2 kmh N 3.4 mph5.5 kmh 30.15 in1021.0 mb 0.00 in0.0 mm 0.00 in0.0 mm 0.00 in0.0 mm
05:59 AM 32.7°F0.4°C 27.9°F-2.3°C 82% 2.0 mph NNW3.2 kmh NNW 5.6 mph9.0 kmh 30.15 in1021.0 mb 0.00 in0.0 mm 0.00 in0.0 mm 0.00 in0.0 mm
05:54 AM 32.7°F0.4°C 27.9°F-2.3°C 82% 2.0 mph NNW3.2 kmh NNW 5.6 mph9.0 kmh 30.14 in1020.7 mb 0.00 in0.0 mm 0.00 in0.0 mm 0.00 in0.0 mm
05:49 AM 32.8°F0.4°C 28.1°F-2.2°C 82% 2.2 mph NW3.5 kmh NW 5.6 mph9.0 kmh 30.14 in1020.7 mb 0.00 in0.0 mm 0.00 in0.0 mm 0.00 in0.0 mm
05:44 AM 32.9°F0.5°C 28.3°F-2.1°C 83% 2.2 mph NNW3.5 kmh NNW 4.3 mph6.9 kmh 30.14 in1020.7 mb 0.00 in0.0 mm 0.00 in0.0 mm 0.00 in0.0 mm
05:39 AM 33.0°F0.6°C 28.5°F-1.9°C 83% 3.0 mph NNW4.8 kmh NNW 7.2 mph11.6 kmh 30.15 in1021.0 mb 0.00 in0.0 mm 0.00 in0.0 mm 0.00 in0.0 mm
05:34 AM 33.0°F0.6°C 28.7°F-1.8°C 84% 4.3 mph N6.9 kmh N 7.2 mph11.6 kmh 30.15 in1021.0 mb 0.00 in0.0 mm 0.00 in0.0 mm 0.00 in0.0 mm
05:29 AM 32.9°F0.5°C 28.8°F-1.8°C 85% 2.8 mph NNW4.5 kmh NNW 4.3 mph6.9 kmh 30.15 in1021.0 mb 0.00 in0.0 mm 0.00 in0.0 mm 0.00 in0.0 mm
05:24 AM 32.9°F0.5°C 28.8°F-1.8°C 85% 2.3 mph NNW3.7 kmh NNW 3.6 mph5.8 kmh 30.14 in1020.7 mb 0.00 in0.0 mm 0.00 in0.0 mm 0.00 in0.0 mm
05:19 AM 32.9°F0.5°C 29.0°F-1.7°C 86% 2.0 mph N3.2 kmh N 3.6 mph5.8 kmh 30.14 in1020.7 mb 0.00 in0.0 mm 0.00 in0.0 mm 0.00 in0.0 mm
05:14 AM 32.9°F0.5°C 29.1°F-1.6°C 86% 2.2 mph N3.5 kmh N 4.0 mph6.4 kmh 30.14 in1020.7 mb 0.00 in0.0 mm 0.00 in0.0 mm 0.00 in0.0 mm
05:09 AM 32.9°F0.5°C 29.1°F-1.6°C 86% 2.7 mph NNW4.3 kmh NNW 4.3 mph6.9 kmh 30.14 in1020.7 mb 0.00 in0.0 mm 0.00 in0.0 mm 0.00 in0.0 mm
05:04 AM 32.9°F0.5°C 29.1°F-1.6°C 86% 2.9 mph NNW4.7 kmh NNW 4.3 mph6.9 kmh 30.14 in1020.7 mb 0.00 in0.0 mm 0.00 in0.0 mm 0.00 in0.0 mm
04:59 AM 32.9°F0.5°C 29.1°F-1.6°C 86% 1.5 mph NNW2.4 kmh NNW 6.5 mph10.5 kmh 30.14 in1020.7 mb 0.00 in0.0 mm 0.00 in0.0 mm 0.00 in0.0 mm
04:54 AM 32.9°F0.5°C 29.4°F-1.4°C 87% 2.7 mph N4.3 kmh N 6.5 mph10.5 kmh 30.13 in1020.3 mb 0.00 in0.0 mm 0.00 in0.0 mm 0.00 in0.0 mm
04:49 AM 32.8°F0.4°C 29.3°F-1.5°C 87% 1.3 mph NNW2.1 kmh NNW 4.3 mph6.9 kmh 30.13 in1020.3 mb 0.00 in0.0 mm 0.00 in0.0 mm 0.00 in0.0 mm
04:44 AM 32.7°F0.4°C 29.2°F-1.6°C 87% 2.8 mph N4.5 kmh N 4.3 mph6.9 kmh 30.13 in1020.3 mb 0.00 in0.0 mm 0.00 in0.0 mm 0.00 in0.0 mm
04:39 AM 32.7°F0.4°C 29.2°F-1.6°C 87% 1.7 mph N2.7 kmh N 2.7 mph4.3 kmh 30.13 in1020.3 mb 0.00 in0.0 mm 0.00 in0.0 mm 0.00 in0.0 mm
04:34 AM 32.7°F0.4°C 29.2°F-1.6°C 87% 1.1 mph E1.8 kmh E 2.2 mph3.5 kmh 30.13 in1020.3 mb 0.00 in0.0 mm 0.00 in0.0 mm 0.00 in0.0 mm
04:29 AM 32.7°F0.4°C 29.2°F-1.6°C 87% 1.2 mph NW1.9 kmh NW 2.9 mph4.7 kmh 30.13 in1020.3 mb 0.00 in0.0 mm 0.00 in0.0 mm 0.00 in0.0 mm
04:24 AM 32.8°F0.4°C 29.4°F-1.4°C 87% 1.5 mph N2.4 kmh N 2.9 mph4.7 kmh 30.13 in1020.3 mb 0.00 in0.0 mm 0.00 in0.0 mm 0.00 in0.0 mm
04:19 AM 32.9°F0.5°C 29.4°F-1.4°C 87% 1.2 mph N1.9 kmh N 4.0 mph6.4 kmh 30.12 in1020.0 mb 0.00 in0.0 mm 0.00 in0.0 mm 0.00 in0.0 mm
04:14 AM 32.9°F0.5°C 29.7°F-1.3°C 88% 2.6 mph N4.2 kmh N 4.0 mph6.4 kmh 30.12 in1020.0 mb 0.00 in0.0 mm 0.00 in0.0 mm 0.00 in0.0 mm
04:09 AM 32.8°F0.4°C 29.7°F-1.3°C 88% 2.8 mph NNW4.5 kmh NNW 5.4 mph8.7 kmh 30.12 in1020.0 mb 0.00 in0.0 mm 0.00 in0.0 mm 0.00 in0.0 mm
04:04 AM 32.7°F0.4°C 29.6°F-1.3°C 88% 2.9 mph N4.7 kmh N 5.4 mph8.7 kmh 30.12 in1020.0 mb 0.00 in0.0 mm 0.00 in0.0 mm 0.00 in0.0 mm
03:59 AM 32.7°F0.4°C 29.6°F-1.3°C 88% 2.2 mph N3.5 kmh N 4.3 mph6.9 kmh 30.12 in1020.0 mb 0.00 in0.0 mm 0.00 in0.0 mm 0.00 in0.0 mm
03:54 AM 32.9°F0.5°C 29.7°F-1.3°C 88% 1.6 mph NE2.6 kmh NE 4.9 mph7.9 kmh 30.13 in1020.3 mb 0.00 in0.0 mm 0.00 in0.0 mm 0.00 in0.0 mm
03:49 AM 32.9°F0.5°C 29.9°F-1.2°C 89% 2.9 mph N4.7 kmh N 4.9 mph7.9 kmh 30.13 in1020.3 mb 0.00 in0.0 mm 0.00 in0.0 mm 0.00 in0.0 mm
03:44 AM 32.9°F0.5°C 30.1°F-1.1°C 89% 3.3 mph N5.3 kmh N 5.4 mph8.7 kmh 30.13 in1020.3 mb 0.00 in0.0 mm 0.00 in0.0 mm 0.00 in0.0 mm
03:39 AM 32.8°F0.4°C 30.0°F-1.1°C 89% 3.3 mph NNW5.3 kmh NNW 5.4 mph8.7 kmh 30.13 in1020.3 mb 0.00 in0.0 mm 0.00 in0.0 mm 0.00 in0.0 mm
03:34 AM 32.7°F0.4°C 30.1°F-1.1°C 90% 3.7 mph N6.0 kmh N 5.4 mph8.7 kmh 30.12 in1020.0 mb 0.00 in0.0 mm 0.00 in0.0 mm 0.00 in0.0 mm
03:29 AM 32.7°F0.4°C 30.2°F-1.0°C 90% 2.7 mph NNE4.3 kmh NNE 4.3 mph6.9 kmh 30.12 in1020.0 mb 0.00 in0.0 mm 0.00 in0.0 mm 0.00 in0.0 mm
03:24 AM 32.7°F0.4°C 30.2°F-1.0°C 90% 2.5 mph N4.0 kmh N 4.0 mph6.4 kmh 30.13 in1020.3 mb 0.00 in0.0 mm 0.00 in0.0 mm 0.00 in0.0 mm
03:19 AM 32.7°F0.4°C 30.2°F-1.0°C 90% 2.9 mph NE4.7 kmh NE 4.0 mph6.4 kmh 30.12 in1020.0 mb 0.00 in0.0 mm 0.00 in0.0 mm 0.00 in0.0 mm
03:14 AM 32.7°F0.4°C 30.2°F-1.0°C 90% 2.4 mph N3.9 kmh N 4.0 mph6.4 kmh 30.12 in1020.0 mb 0.00 in0.0 mm 0.00 in0.0 mm 0.00 in0.0 mm
03:09 AM 32.7°F0.4°C 30.2°F-1.0°C 90% 2.9 mph N4.7 kmh N 4.0 mph6.4 kmh 30.13 in1020.3 mb 0.00 in0.0 mm 0.00 in0.0 mm 0.00 in0.0 mm
03:04 AM 32.7°F0.4°C 30.5°F-0.8°C 91% 1.7 mph SE2.7 kmh SE 4.3 mph6.9 kmh 30.13 in1020.3 mb 0.00 in0.0 mm 0.00 in0.0 mm 0.00 in0.0 mm
02:59 AM 32.7°F0.4°C 30.5°F-0.8°C 91% 2.9 mph NNE4.7 kmh NNE 5.8 mph9.3 kmh 30.13 in1020.3 mb 0.00 in0.0 mm 0.00 in0.0 mm 0.00 in0.0 mm
02:54 AM 32.7°F0.4°C 30.5°F-0.8°C 91% 3.4 mph ENE5.5 kmh ENE 5.8 mph9.3 kmh 30.13 in1020.3 mb 0.00 in0.0 mm 0.00 in0.0 mm 0.00 in0.0 mm
02:49 AM 32.7°F0.4°C 30.5°F-0.8°C 91% 3.0 mph N4.8 kmh N 4.3 mph6.9 kmh 30.12 in1020.0 mb 0.00 in0.0 mm 0.00 in0.0 mm 0.00 in0.0 mm
02:44 AM 32.7°F0.4°C 30.5°F-0.8°C 91% 2.5 mph N4.0 kmh N 4.0 mph6.4 kmh 30.12 in1020.0 mb 0.00 in0.0 mm 0.00 in0.0 mm 0.00 in0.0 mm
02:39 AM 32.7°F0.4°C 30.5°F-0.8°C 91% 3.0 mph NNE4.8 kmh NNE 4.0 mph6.4 kmh 30.12 in1020.0 mb 0.00 in0.0 mm 0.00 in0.0 mm 0.00 in0.0 mm
02:34 AM 32.7°F0.4°C 30.5°F-0.8°C 91% 2.5 mph N4.0 kmh N 3.8 mph6.1 kmh 30.12 in1020.0 mb 0.00 in0.0 mm 0.00 in0.0 mm 0.00 in0.0 mm
02:29 AM 32.7°F0.4°C 30.5°F-0.8°C 91% 1.9 mph NNE3.1 kmh NNE 4.9 mph7.9 kmh 30.12 in1020.0 mb 0.00 in0.0 mm 0.00 in0.0 mm 0.00 in0.0 mm
02:24 AM 32.7°F0.4°C 30.5°F-0.8°C 91% 2.7 mph E4.3 kmh E 4.9 mph7.9 kmh 30.12 in1020.0 mb 0.00 in0.0 mm 0.00 in0.0 mm 0.00 in0.0 mm
02:19 AM 32.7°F0.4°C 30.6°F-0.8°C 92% 2.1 mph NE3.4 kmh NE 4.5 mph7.2 kmh 30.12 in1020.0 mb 0.00 in0.0 mm 0.00 in0.0 mm 0.00 in0.0 mm
02:14 AM 32.7°F0.4°C 30.8°F-0.7°C 93% 3.1 mph N5.0 kmh N 4.5 mph7.2 kmh 30.12 in1020.0 mb 0.00 in0.0 mm 0.00 in0.0 mm 0.00 in0.0 mm
02:09 AM 32.7°F0.4°C 30.8°F-0.7°C 93% 2.4 mph NE3.9 kmh NE 4.0 mph6.4 kmh 30.11 in1019.6 mb 0.00 in0.0 mm 0.00 in0.0 mm 0.00 in0.0 mm
02:04 AM 32.7°F0.4°C 30.8°F-0.7°C 93% 2.8 mph NNW4.5 kmh NNW 4.9 mph7.9 kmh 30.11 in1019.6 mb 0.00 in0.0 mm 0.00 in0.0 mm 0.00 in0.0 mm
01:59 AM 32.7°F0.4°C 30.8°F-0.7°C 93% 2.7 mph NNE4.3 kmh NNE 5.4 mph8.7 kmh 30.11 in1019.6 mb 0.00 in0.0 mm 0.00 in0.0 mm 0.00 in0.0 mm
01:54 AM 32.7°F0.4°C 30.9°F-0.6°C 93% 4.0 mph NNE6.4 kmh NNE 5.4 mph8.7 kmh 30.11 in1019.6 mb 0.00 in0.0 mm 0.00 in0.0 mm 0.00 in0.0 mm
01:49 AM 32.5°F0.3°C 30.9°F-0.6°C 94% 3.0 mph W4.8 kmh W 5.4 mph8.7 kmh 30.11 in1019.6 mb 0.00 in0.0 mm 0.00 in0.0 mm 0.00 in0.0 mm
01:44 AM 32.5°F0.3°C 30.9°F-0.6°C 94% 3.2 mph NNE5.1 kmh NNE 5.4 mph8.7 kmh 30.11 in1019.6 mb 0.00 in0.0 mm 0.00 in0.0 mm 0.00 in0.0 mm
01:39 AM 32.5°F0.3°C 30.9°F-0.6°C 94% 2.8 mph NNE4.5 kmh NNE 4.7 mph7.6 kmh 30.11 in1019.6 mb 0.00 in0.0 mm 0.00 in0.0 mm 0.00 in0.0 mm
01:34 AM 32.5°F0.3°C 31.2°F-0.4°C 95% 2.1 mph NE3.4 kmh NE 6.0 mph9.7 kmh 30.10 in1019.3 mb 0.00 in0.0 mm 0.00 in0.0 mm 0.00 in0.0 mm
01:29 AM 32.5°F0.3°C 31.2°F-0.4°C 95% 3.4 mph NNE5.5 kmh NNE 6.0 mph9.7 kmh 30.10 in1019.3 mb 0.00 in0.0 mm 0.00 in0.0 mm 0.00 in0.0 mm
01:24 AM 32.5°F0.3°C 31.2°F-0.4°C 95% 1.4 mph NNE2.3 kmh NNE 3.8 mph6.1 kmh 30.10 in1019.3 mb 0.00 in0.0 mm 0.00 in0.0 mm 0.00 in0.0 mm
01:19 AM 32.5°F0.3°C 31.2°F-0.4°C 95% 2.7 mph NNW4.3 kmh NNW 4.9 mph7.9 kmh 30.10 in1019.3 mb 0.00 in0.0 mm 0.00 in0.0 mm 0.00 in0.0 mm
01:14 AM 32.5°F0.3°C 31.2°F-0.4°C 95% 3.1 mph NNE5.0 kmh NNE 5.8 mph9.3 kmh 30.10 in1019.3 mb 0.00 in0.0 mm 0.00 in0.0 mm 0.00 in0.0 mm
01:09 AM 32.5°F0.3°C 31.2°F-0.4°C 95% 2.6 mph NE4.2 kmh NE 5.8 mph9.3 kmh 30.09 in1019.0 mb 0.00 in0.0 mm 0.00 in0.0 mm 0.00 in0.0 mm
01:04 AM 32.5°F0.3°C 31.2°F-0.4°C 95% 3.2 mph ENE5.1 kmh ENE 5.8 mph9.3 kmh 30.09 in1019.0 mb 0.00 in0.0 mm 0.00 in0.0 mm 0.00 in0.0 mm
12:59 AM 32.5°F0.3°C 31.5°F-0.3°C 96% 3.2 mph NE5.1 kmh NE 6.3 mph10.1 kmh 30.09 in1019.0 mb 0.00 in0.0 mm 0.00 in0.0 mm 0.00 in0.0 mm
12:54 AM 32.5°F0.3°C 31.5°F-0.3°C 96% 3.4 mph NNW5.5 kmh NNW 6.3 mph10.1 kmh 30.09 in1019.0 mb 0.00 in0.0 mm 0.00 in0.0 mm 0.00 in0.0 mm
12:49 AM 32.5°F0.3°C 31.5°F-0.3°C 96% 2.9 mph NNE4.7 kmh NNE 5.8 mph9.3 kmh 30.09 in1019.0 mb 0.00 in0.0 mm 0.00 in0.0 mm 0.00 in0.0 mm
12:44 AM 32.5°F0.3°C 31.5°F-0.3°C 96% 2.6 mph SSW4.2 kmh SSW 3.6 mph5.8 kmh 30.09 in1019.0 mb 0.00 in0.0 mm 0.00 in0.0 mm 0.00 in0.0 mm
12:39 AM 32.5°F0.3°C 31.5°F-0.3°C 96% 2.2 mph NE3.5 kmh NE 5.8 mph9.3 kmh 30.09 in1019.0 mb 0.00 in0.0 mm 0.00 in0.0 mm 0.00 in0.0 mm
12:34 AM 32.4°F0.2°C 31.4°F-0.3°C 96% 2.9 mph NNE4.7 kmh NNE 5.8 mph9.3 kmh 30.09 in1019.0 mb 0.00 in0.0 mm 0.00 in0.0 mm 0.00 in0.0 mm
12:29 AM 32.4°F0.2°C 31.3°F-0.4°C 96% 2.6 mph SE4.2 kmh SE 3.8 mph6.1 kmh 30.10 in1019.3 mb 0.00 in0.0 mm 0.00 in0.0 mm 0.00 in0.0 mm
12:24 AM 32.4°F0.2°C 31.4°F-0.3°C 96% 2.3 mph NE3.7 kmh NE 4.3 mph6.9 kmh 30.10 in1019.3 mb 0.00 in0.0 mm 0.00 in0.0 mm 0.00 in0.0 mm
12:19 AM 32.5°F0.3°C 31.7°F-0.2°C 97% 2.8 mph SW4.5 kmh SW 4.3 mph6.9 kmh 30.10 in1019.3 mb 0.00 in0.0 mm 0.00 in0.0 mm 0.00 in0.0 mm
12:14 AM 32.5°F0.3°C 31.5°F-0.3°C 96% 2.6 mph N4.2 kmh N 4.9 mph7.9 kmh 30.10 in1019.3 mb 0.00 in0.0 mm 0.00 in0.0 mm 0.00 in0.0 mm
12:09 AM 32.4°F0.2°C 31.5°F-0.3°C 97% 2.6 mph SE4.2 kmh SE 4.9 mph7.9 kmh 30.10 in1019.3 mb 0.00 in0.0 mm 0.00 in0.0 mm 0.00 in0.0 mm
12:04 AM 32.4°F0.2°C 31.6°F-0.2°C 97% 2.6 mph NNE4.2 kmh NNE 7.4 mph11.9 kmh 30.10 in1019.3 mb 0.00 in0.0 mm 0.00 in0.0 mm 0.00 in0.0 mm